Latest Weather Observations for Tidbinbilla

IDN60901

Issued at 4:11 am EDT Tuesday 21 January 2020 (issued every 10 minutes, with the page automatically refreshed every 10 minutes)

About weather observations | Map of Canberra area stations | Latest observations for Canberra area | Other Formats
Station Details ID: 250069 Name: TIDBINBILLA (PCS) Lat: -35.46 Lon: 148.94 Height: 883.0 m

Portable automatic weather stations (PAWS) are operated by other organisations, such as Fire and Emergency Services, and are included here by agreement. Portable stations may be deployed to a location for a short period and their location may be subject to change without notice. Wind observations from these stations are provided from heights of either three (3) or ten (10) metres above ground level (AGL).

Data from the previous 72 hours. | See also: Recent months for locations in Aust Capital Territory
Date/Time
EDT
Temp
°C
App
Temp
°C
Dew
Point
°C
Rel
Hum
%
Delta-T
°C
Wind Press
QNH
hPa
Press
MSL
hPa
Rain since
9am
mm
Dir  Spd
km/h
Gust
km/h
Spd
kts
Gust
kts
21/04:00am 14.0 10.3 9.4 74 2.5 SW 19 24 10 13 1006.3 - 3.8
21/03:50am 14.2 8.8 9.4 73 2.6 SW 28 33 15 18 1006.1 - 3.8
21/03:40am 14.0 8.9 9.3 73 2.5 SW 26 35 14 19 1005.9 - 3.8
21/03:30am 13.9 9.6 9.3 74 2.5 SW 22 30 12 16 1006.4 - 3.8
21/03:20am 14.0 8.9 9.3 73 2.5 SW 26 33 14 18 1006.6 - 3.8
21/03:10am 14.1 9.1 9.4 73 2.5 SW 26 35 14 19 1006.7 - 3.8
21/03:00am 14.0 9.3 9.3 73 2.5 SW 24 28 13 15 1006.9 - 3.8
21/02:50am 14.0 10.6 9.1 72 2.6 SW 17 24 9 13 1006.9 - 3.8
21/02:40am 14.1 11.0 9.0 71 2.7 SW 15 19 8 10 1007.1 - 3.8
21/02:30am 14.1 10.2 8.8 70 2.8 SW 19 22 10 12 1007.1 - 3.8
21/02:20am 14.0 11.2 8.7 70 2.8 SW 13 20 7 11 1007.0 - 3.8
21/02:10am 14.2 11.1 8.8 70 2.9 WSW 15 20 8 11 1007.0 - 3.8
21/02:00am 14.3 11.5 8.4 67 3.1 WSW 13 20 7 11 1007.0 - 3.8
21/01:50am 14.6 11.0 8.2 65 3.4 WSW 17 24 9 13 1007.2 - 3.8
21/01:40am 14.8 11.5 8.0 64 3.6 WSW 15 20 8 11 1007.2 - 3.8
21/01:30am 15.0 11.2 7.6 61 3.9 WSW 17 26 9 14 1007.2 - 3.8
21/01:20am 15.2 11.8 7.7 61 3.9 WSW 15 20 8 11 1007.3 - 3.8
21/01:10am 15.4 11.6 7.6 59 4.1 WSW 17 24 9 13 1007.4 - 3.8
21/01:00am 15.5 11.6 7.2 57 4.3 WSW 17 24 9 13 1007.5 - 3.8
21/12:50am 15.5 11.5 6.7 55 4.5 WSW 17 22 9 12 1007.3 - 3.8
21/12:40am 15.3 12.3 7.5 59 4.1 WSW 13 20 7 11 1007.4 - 3.8
21/12:30am 15.3 12.0 8.1 62 3.8 SW 15 19 8 10 1007.3 - 3.8
21/12:20am 15.5 10.8 7.9 60 4.0 SW 22 26 12 14 1007.4 - 3.8
21/12:10am 15.5 11.2 7.9 60 4.0 SW 20 24 11 13 1007.5 - 3.8
21/12:00am 15.4 10.0 8.2 62 3.8 SW 26 28 14 15 1007.2 - 3.8
 
Date/Time
EDT
Temp
°C
App
Temp
°C
Dew
Point
°C
Rel
Hum
%
Delta-T
°C
Wind Press
QNH
hPa
Press
MSL
hPa
Rain since
9am
mm
Dir  Spd
km/h
Gust
km/h
Spd
kts
Gust
kts
20/11:50pm 15.4 10.1 8.5 63 3.7 SW 26 30 14 16 1007.2 - 3.8
20/11:40pm 15.4 10.1 8.4 63 3.7 SW 26 32 14 17 1007.1 - 3.8
20/11:30pm 15.5 9.5 8.8 64 3.6 SW 30 37 16 20 1007.4 - 3.8
20/11:20pm 15.5 8.2 8.8 64 3.6 WSW 37 44 20 24 1007.3 - 3.8
20/11:10pm 15.6 8.6 8.6 63 3.7 WSW 35 52 19 28 1007.6 - 3.8
20/11:00pm 15.7 10.2 9.0 64 3.6 WSW 28 39 15 21 1007.6 - 3.8
20/10:50pm 15.5 11.6 8.8 64 3.6 WSW 19 22 10 12 1007.7 - 3.8
20/10:40pm 15.6 11.5 8.8 64 3.6 WSW 20 24 11 13 1007.8 - 3.8
20/10:30pm 15.4 12.3 8.7 64 3.6 SW 15 22 8 12 1007.6 - 3.8
20/10:20pm 15.4 13.1 8.9 65 3.5 SW 11 15 6 8 1007.7 - 3.8
20/10:10pm 15.5 13.2 9.1 65 3.4 SW 11 15 6 8 1007.8 - 3.8
20/10:00pm 15.7 13.0 9.0 64 3.6 SW 13 19 7 10 1007.8 - 3.8
20/09:50pm 16.1 13.4 9.1 63 3.8 WSW 13 20 7 11 1007.8 - 3.8
20/09:40pm 16.1 13.0 8.7 61 4.0 SW 15 22 8 12 1007.7 - 3.8
20/09:30pm 16.2 12.8 9.1 63 3.8 WSW 17 20 9 11 1007.7 - 3.8
20/09:20pm 16.2 12.8 9.2 63 3.8 WSW 17 20 9 11 1007.3 - 3.8
20/09:10pm 16.3 13.8 9.7 65 3.6 WSW 13 17 7 9 1007.3 - 3.8
20/09:00pm 16.5 13.6 9.5 63 3.8 WSW 15 20 8 11 1007.2 - 3.8
20/08:50pm 16.6 14.0 9.4 62 3.9 WSW 13 20 7 11 1007.0 - 3.8
20/08:40pm 16.6 15.3 10.0 65 3.6 WSW 7 11 4 6 1006.9 - 3.8
20/08:30pm 17.0 14.9 9.7 62 4.0 WSW 11 13 6 7 1006.9 - 3.8
20/08:20pm 17.2 14.3 9.7 61 4.1 WSW 15 28 8 15 1006.8 - 3.8
20/08:10pm 17.4 14.6 9.9 61 4.1 WSW 15 22 8 12 1006.7 - 3.8
20/08:00pm 17.7 14.8 9.5 58 4.5 W 15 17 8 9 1006.6 - 3.8
20/07:50pm 18.3 15.3 9.3 55 4.9 W 15 20 8 11 1006.3 - 3.8
20/07:40pm 19.1 16.1 9.2 52 5.4 W 15 22 8 12 1006.2 - 3.8
20/07:30pm 19.6 17.0 9.4 51 5.6 W 13 22 7 12 1006.0 - 3.8
20/07:20pm 19.2 16.3 9.7 54 5.3 WSW 15 19 8 10 1006.0 - 3.8
20/07:10pm 19.8 16.6 9.8 52 5.6 SW 17 22 9 12 1005.8 - 3.8
20/07:00pm 19.7 15.8 9.5 51 5.7 SW 20 24 11 13 1005.7 - 3.8
20/06:50pm 19.5 14.5 9.4 52 5.6 WSW 26 35 14 19 1005.8 - 3.8
20/06:40pm 19.8 15.3 8.7 48 6.1 WSW 22 37 12 20 1005.4 - 3.8
20/06:30pm 20.8 17.4 9.1 47 6.5 WSW 17 22 9 12 1005.5 - 3.8
20/06:20pm 21.6 18.1 8.8 44 7.1 W 17 22 9 12 1005.3 - 3.8
20/06:10pm 21.4 17.6 9.0 45 6.9 W 19 24 10 13 1005.2 - 3.8
20/06:00pm 22.9 18.9 8.4 39 8.0 WSW 19 30 10 16 1004.9 - 3.8
20/05:50pm 23.0 19.1 7.2 36 8.6 WSW 17 32 9 17 1004.7 - 3.8
20/05:40pm 23.0 19.2 7.5 37 8.4 W 17 22 9 12 1004.7 - 3.8
20/05:30pm 23.1 19.4 8.0 38 8.3 NNW 17 22 9 12 1004.7 - 3.8
20/05:20pm 23.2 19.1 7.9 37 8.4 NW 19 28 10 15 1004.5 - 3.8
20/05:10pm 23.0 21.1 9.0 41 7.8 WNW 9 15 5 8 1004.6 - 3.8
20/05:00pm 23.0 20.2 8.4 39 8.1 W 13 15 7 8 1004.6 - 3.8
20/04:50pm 22.6 19.6 9.1 42 7.5 W 15 20 8 11 1004.8 - 3.8
20/04:40pm 23.7 19.7 10.3 42 7.7 NW 22 30 12 16 1005.0 - 3.8
20/04:30pm 23.7 21.7 10.3 42 7.7 W 11 17 6 9 1004.7 - 3.8
20/04:20pm 23.0 21.4 10.1 44 7.4 WNW 9 13 5 7 1004.6 - 3.8
20/04:10pm 23.0 20.7 10.3 44 7.3 WSW 13 19 7 10 1004.6 - 3.8
20/04:00pm 23.4 20.7 9.1 40 8.0 WNW 13 19 7 10 1004.6 - 3.8
20/03:50pm 23.3 21.9 10.9 45 7.2 WSW 9 15 5 8 1004.4 - 3.8
20/03:40pm 23.3 21.5 11.0 46 7.1 W 11 15 6 8 1004.4 - 3.8
20/03:30pm 22.9 19.6 9.6 42 7.5 WSW 17 20 9 11 1004.6 - 3.8
20/03:20pm 22.6 19.0 10.0 44 7.2 WSW 19 24 10 13 1004.8 - 3.8
20/03:10pm 22.2 18.3 9.4 44 7.2 WSW 20 26 11 14 1004.8 - 3.8
20/03:00pm 21.6 16.1 9.2 45 6.9 SW 28 32 15 17 1004.9 - 3.8
20/02:50pm 20.9 16.7 9.9 49 6.2 SW 22 26 12 14 1004.7 - 3.8
20/02:40pm 19.0 13.8 10.2 56 4.9 SSW 28 35 15 19 1004.7 - 3.8
20/02:30pm 17.4 11.4 10.0 62 4.1 SW 32 35 17 19 1004.4 - 3.8
20/02:20pm 16.1 10.5 10.0 67 3.3 SW 30 37 16 20 1004.9 - 3.8
20/02:10pm 15.1 8.2 10.3 73 2.6 SW 37 46 20 25 1005.1 - 3.8
20/02:00pm 14.1 5.9 10.3 78 2.1 SSW 44 52 24 28 1005.0 - 3.8
20/01:50pm 13.5 3.1 11.4 87 1.2 SSW 57 72 31 39 1004.9 - 3.8
20/01:40pm 13.5 1.2 11.4 87 1.2 SW 67 70 36 38 1003.5 - 3.6
20/01:30pm 14.2 3.4 11.1 81 1.7 SW 59 69 32 37 1006.0 - 3.2
20/01:20pm 14.5 5.8 11.2 80 1.8 WSW 48 70 26 38 1005.4 - 3.2
20/01:10pm 14.2 10.0 12.5 89 1.0 SSW 26 30 14 16 1005.8 - 3.2
20/01:00pm 13.3 8.4 11.3 88 1.1 SSW 28 37 15 20 1004.5 - 3.2
20/12:50pm 12.5 6.8 11.2 92 0.7 SSW 32 43 17 23 1003.8 - 3.2
20/12:40pm 13.2 7.7 11.7 91 0.8 SW 32 46 17 25 1005.3 - 3.0
20/12:30pm 17.7 11.7 12.0 69 3.3 WSW 35 56 19 30 1004.6 - 0.0
20/12:20pm 21.4 21.9 15.1 67 3.9 N 6 13 3 7 1004.9 - 0.0
20/12:10pm 21.9 20.6 14.8 64 4.4 NNE 15 20 8 11 1004.5 - 0.0
20/12:00pm 22.9 21.6 14.7 60 5.0 NNE 15 20 8 11 1004.8 - 0.0
20/11:50am 23.8 22.9 14.9 57 5.5 N 13 17 7 9 1005.3 - 0.0
20/11:40am 22.4 21.6 14.0 59 5.1 NNE 11 17 6 9 1005.8 - 0.0
20/11:30am 22.1 20.8 14.8 63 4.5 NNE 15 19 8 10 1006.2 - 0.0
20/11:20am 23.0 23.0 15.1 61 4.9 NNE 9 17 5 9 1006.2 - 0.0
20/11:10am 22.7 23.1 15.3 63 4.6 NE 7 9 4 5 1006.4 - 0.0
20/11:00am 21.9 21.7 13.6 59 5.0 N 7 11 4 6 1006.6 - 0.0
20/10:50am 21.8 21.5 14.5 63 4.5 N 9 13 5 7 1006.9 - 0.0
20/10:40am 20.8 20.5 14.4 67 3.9 NE 9 13 5 7 1007.0 - 0.0
20/10:30am 20.6 20.8 14.8 69 3.5 NNE 7 11 4 6 1007.2 - 0.0
20/10:20am 20.6 20.8 14.3 67 3.8 N 6 9 3 5 1007.3 - 0.0
20/10:10am 21.1 22.3 15.0 68 3.7 N 2 7 1 4 1007.4 - 0.0
20/10:00am 20.4 20.6 14.8 70 3.4 NNE 7 11 4 6 1007.4 - 8.4
20/09:50am 20.7 20.6 15.0 70 3.5 N 9 11 5 6 1007.6 - 8.4
20/09:40am 19.7 20.6 16.6 82 1.9 N 7 9 4 5 1007.5 - 8.4
20/09:30am 20.0 21.1 15.5 75 2.8 NNW 4 6 2 3 1007.6 - 8.4
20/09:20am 18.8 20.3 15.8 83 1.8 W 2 4 1 2 1007.5 - 8.4
20/09:10am 18.5 20.0 15.8 84 1.7 WNW 2 4 1 2 1007.6 - 8.4
20/09:00am 18.3 19.8 15.8 85 1.5 SW 2 4 1 2 1007.8 - 8.4
20/08:50am 18.2 20.1 15.7 85 1.5 CALM 0 0 0 0 1007.9 - 8.4
20/08:40am 18.3 19.7 15.3 83 1.8 SW 2 4 1 2 1008.0 - 8.4
20/08:30am 17.3 18.5 15.0 86 1.4 SSW 2 4 1 2 1007.9 - 8.4
20/08:20am 16.9 18.3 15.4 91 0.9 W 2 4 1 2 1008.0 - 8.4
20/08:10am 17.0 18.1 15.5 91 0.9 NNW 4 4 2 2 1007.9 - 8.4
20/08:00am 17.1 18.2 15.7 91 0.9 N 4 4 2 2 1007.8 - 8.4
20/07:50am 17.0 18.1 14.7 86 1.4 NE 2 4 1 2 1007.8 - 8.4
20/07:40am 16.4 17.6 15.0 91 0.8 E 2 4 1 2 1007.8 - 8.4
20/07:30am 16.6 17.9 15.1 91 0.9 ESE 2 4 1 2 1007.9 - 8.4
20/07:20am 16.3 17.2 14.1 87 1.3 S 2 4 1 2 1007.7 - 8.4
20/07:10am 16.0 17.4 14.4 90 1.0 CALM 0 2 0 1 1007.7 - 8.4
20/07:00am 15.9 16.4 14.1 89 1.1 E 4 4 2 2 1007.7 - 8.4
20/06:50am 15.7 15.8 13.9 89 1.1 NE 6 7 3 4 1007.7 - 8.4
20/06:40am 15.7 16.5 13.7 88 1.2 N 2 7 1 4 1007.8 - 8.4
20/06:30am 15.5 16.3 13.7 89 1.1 S 2 4 1 2 1007.5 - 8.4
20/06:20am 15.5 15.8 13.5 88 1.2 S 4 6 2 3 1007.4 - 8.4
20/06:10am 15.4 15.7 13.5 88 1.1 S 4 6 2 3 1007.4 - 8.4
20/06:00am 15.3 16.5 13.8 91 0.9 CALM 0 4 0 2 1007.4 - 8.4
20/05:50am 15.2 15.6 13.7 91 0.9 SSW 4 6 2 3 1007.3 - 8.4
20/05:40am 15.3 16.1 13.8 91 0.9 SW 2 4 1 2 1007.1 - 8.4
20/05:30am 15.3 16.1 13.8 91 0.9 S 2 4 1 2 1007.1 - 8.4
20/05:20am 15.3 16.2 14.0 92 0.8 S 2 6 1 3 1007.0 - 8.4
20/05:10am 15.5 16.6 14.5 94 0.6 NE 2 2 1 1 1007.1 - 8.4
20/05:00am 15.8 16.8 14.3 91 0.9 NE 2 6 1 3 1007.1 - 8.4
20/04:50am 15.8 16.7 14.0 89 1.1 ESE 2 4 1 2 1007.2 - 8.4
20/04:40am 15.8 15.8 13.7 87 1.2 S 6 7 3 4 1007.1 - 8.4
20/04:30am 15.4 15.3 13.9 91 0.9 S 7 7 4 4 1007.0 - 8.4
20/04:20am 15.3 15.2 14.0 92 0.8 S 7 9 4 5 1007.1 - 8.4
20/04:10am 15.2 15.1 13.9 92 0.8 S 7 9 4 5 1007.0 - 8.4
20/04:00am 15.1 14.6 13.9 92 0.7 S 9 11 5 6 1006.9 - 8.4
20/03:50am 15.1 15.0 13.8 92 0.8 SSW 7 11 4 6 1007.1 - 8.4
20/03:40am 15.2 16.1 14.0 92 0.7 SW 2 4 1 2 1007.3 - 8.4
20/03:30am 15.0 15.5 14.0 94 0.6 S 4 6 2 3 1007.3 - 8.4
20/03:20am 14.8 15.3 14.0 95 0.5 SSW 4 6 2 3 1007.5 - 8.4
20/03:10am 15.1 15.6 14.1 94 0.6 WSW 4 6 2 3 1007.6 - 8.4
20/03:00am 15.4 16.7 14.1 92 0.8 CALM 0 2 0 1 1007.6 - 8.4
20/02:50am 15.5 16.9 14.4 93 0.7 CALM 0 2 0 1 1007.6 - 8.4
20/02:40am 15.5 16.1 14.3 92 0.7 NNE 4 6 2 3 1007.6 - 8.4
20/02:30am 15.5 15.9 13.7 89 1.1 SSW 4 6 2 3 1007.6 - 8.4
20/02:20am 15.5 15.6 13.9 90 0.9 S 6 7 3 4 1007.3 - 8.4
20/02:10am 15.4 16.2 13.7 90 1.0 SSW 2 4 1 2 1007.6 - 8.4
20/02:00am 15.3 15.4 14.0 92 0.8 SSW 6 9 3 5 1007.6 - 8.4
20/01:50am 15.1 15.1 14.1 94 0.6 SSE 7 9 4 5 1007.8 - 8.4
20/01:40am 15.1 15.3 14.2 94 0.5 S 6 9 3 5 1007.9 - 8.4
20/01:30am 15.9 16.0 14.4 91 0.9 SSE 7 11 4 6 1008.0 - 8.4
20/01:20am 15.9 15.1 14.1 89 1.1 SE 11 15 6 8 1007.7 - 8.4
20/01:10am 15.5 15.3 13.7 89 1.1 ENE 7 15 4 8 1008.0 - 8.4
20/01:00am 15.4 15.3 14.0 91 0.8 SSE 7 11 4 6 1008.5 - 8.4
20/12:50am 15.2 14.0 13.9 92 0.8 S 13 15 7 8 1008.4 - 8.4
20/12:40am 14.8 12.7 13.7 93 0.6 S 17 22 9 12 1008.7 - 8.4
20/12:30am 14.8 12.2 13.8 94 0.6 S 20 26 11 14 1008.9 - 8.4
20/12:20am 15.0 12.8 14.3 96 0.4 S 19 22 10 12 1009.3 - 8.2
20/12:10am 15.3 14.8 14.8 97 0.3 S 11 17 6 9 1009.8 - 7.0
20/12:00am 15.8 15.8 14.3 91 0.9 WSW 7 9 4 5 1010.3 - 3.4
 
Date/Time
EDT
Temp
°C
App
Temp
°C
Dew
Point
°C
Rel
Hum
%
Delta-T
°C
Wind Press
QNH
hPa
Press
MSL
hPa
Rain since
9am
mm
Dir  Spd
km/h
Gust
km/h
Spd
kts
Gust
kts
19/11:50pm 16.3 16.1 14.8 91 0.9 WNW 9 13 5 7 1010.3 - 2.4
19/11:40pm 17.3 19.0 16.3 94 0.6 W 2 6 1 3 1010.5 - 1.4
19/11:30pm 17.5 19.0 16.6 94 0.6 SW 4 6 2 3 1010.4 - 0.8
19/11:20pm 17.9 18.6 16.2 90 1.1 NE 7 9 4 5 1010.5 - 0.6
19/11:10pm 18.0 18.2 15.7 86 1.4 ENE 9 11 5 6 1010.4 - 0.4
19/11:00pm 18.3 17.7 15.7 85 1.6 NNE 13 19 7 10 1010.5 - 0.2
19/10:50pm 18.6 17.6 15.6 83 1.8 NNE 15 17 8 9 1010.7 - 0.0
19/10:40pm 19.0 17.2 15.4 79 2.2 NNE 19 20 10 11 1010.7 - 0.0
19/10:30pm 19.5 17.0 15.1 76 2.7 NNE 22 24 12 13 1010.6 - 0.0
19/10:20pm 19.9 17.2 14.7 72 3.2 NNE 22 26 12 14 1010.5 - 0.0
19/10:10pm 20.1 19.2 14.8 71 3.2 NE 13 15 7 8 1010.3 - 0.0
19/10:00pm 20.2 19.3 14.8 71 3.3 NE 13 17 7 9 1010.1 - 0.0
19/09:50pm 20.3 19.4 14.8 70 3.4 NE 13 17 7 9 1009.9 - 0.0
19/09:40pm 20.4 19.8 14.7 70 3.5 ENE 11 15 6 8 1009.6 - 0.0
19/09:30pm 20.5 19.9 14.6 69 3.6 ENE 11 13 6 7 1009.3 - 0.0
19/09:20pm 20.5 20.2 14.5 68 3.6 E 9 11 5 6 1009.2 - 0.0
19/09:10pm 20.7 20.4 14.5 67 3.8 E 9 13 5 7 1009.1 - 0.0
19/09:00pm 20.8 21.0 14.1 65 4.0 E 6 11 3 6 1009.1 - 0.0
19/08:50pm 20.8 20.9 14.0 65 4.1 ENE 6 11 3 6 1009.0 - 0.0
19/08:40pm 20.8 20.9 14.0 65 4.1 E 6 11 3 6 1008.9 - 0.0
19/08:30pm 20.9 21.0 13.8 64 4.3 ESE 6 13 3 7 1008.6 - 0.0
19/08:20pm 20.9 20.8 13.8 64 4.3 SE 7 11 4 6 1008.3 - 0.0
19/08:10pm 21.1 20.5 13.6 62 4.5 E 9 13 5 7 1008.1 - 0.0
19/08:00pm 21.4 21.2 13.5 60 4.7 SE 7 11 4 6 1007.9 - 0.0
19/07:50pm 21.5 20.9 13.4 60 4.8 SSE 9 13 5 7 1007.8 - 0.0
19/07:40pm 21.5 21.2 13.3 59 4.9 SE 7 11 4 6 1007.8 - 0.0
19/07:30pm 21.5 20.5 13.3 59 4.9 SE 11 15 6 8 1007.7 - 0.0
19/07:20pm 21.7 21.4 13.2 58 5.1 SE 7 13 4 7 1007.6 - 0.0
19/07:10pm 22.0 20.9 13.1 57 5.3 ESE 11 15 6 8 1007.7 - 0.0
19/07:00pm 22.4 22.2 13.5 57 5.4 SE 7 11 4 6 1007.7 - 0.0
19/06:50pm 22.8 22.5 13.3 55 5.7 ESE 7 15 4 8 1007.5 - 0.0
19/06:40pm 23.3 23.0 12.8 51 6.3 NE 6 11 3 6 1007.2 - 0.0
19/06:30pm 23.8 21.8 12.6 49 6.7 ESE 15 22 8 12 1006.9 - 0.0
19/06:20pm 24.4 22.1 11.9 45 7.4 ENE 15 22 8 12 1006.8 - 0.0
19/06:10pm 24.9 22.9 11.4 42 7.9 ENE 13 20 7 11 1006.7 - 0.0
19/06:00pm 25.5 23.5 11.4 41 8.3 ENE 13 20 7 11 1006.8 - 0.0
19/05:50pm 26.8 24.9 11.8 39 8.9 ENE 13 20 7 11 1006.6 - 0.0
19/05:40pm 28.0 26.7 11.2 35 10.0 E 9 13 5 7 1006.5 - 0.0
19/05:30pm 27.1 25.5 10.1 34 9.9 E 9 15 5 8 1006.6 - 0.0
19/05:20pm 26.8 24.2 9.3 33 10.0 NNE 13 19 7 10 1006.8 - 0.0
19/05:10pm 26.5 22.8 8.1 31 10.3 NE 17 24 9 13 1006.8 - 0.0
19/05:00pm 26.6 23.1 8.6 32 10.2 NNE 17 22 9 12 1006.8 - 0.0
19/04:50pm 27.2 24.2 9.3 32 10.3 NE 15 19 8 10 1006.9 - 0.0
19/04:40pm 27.8 24.1 9.6 32 10.5 NNE 19 26 10 14 1007.0 - 0.0
19/04:30pm 28.1 23.9 9.6 31 10.7 NNE 22 28 12 15 1007.0 - 0.0
19/04:20pm 29.6 27.3 9.1 27 11.8 NNE 11 15 6 8 1007.0 - 0.0
19/04:10pm 28.2 24.7 7.3 26 11.7 NE 15 20 8 11 1007.3 - 0.0
19/04:00pm 28.4 24.7 7.9 27 11.6 NNE 17 22 9 12 1007.5 - 0.0
19/03:50pm 29.2 25.3 9.5 29 11.4 N 20 28 11 15 1007.6 - 0.0
19/03:40pm 30.3 27.7 7.8 24 12.8 N 11 17 6 9 1007.6 - 0.0
19/03:30pm 28.2 24.3 7.0 26 11.8 NE 17 20 9 11 1007.9 - 0.0
19/03:20pm 29.1 26.1 7.6 26 12.1 N 13 19 7 10 1008.0 - 0.0
19/03:10pm 28.3 25.7 7.6 27 11.6 ENE 11 19 6 10 1008.3 - 0.0
19/03:00pm 29.1 25.6 7.1 25 12.3 NNE 15 20 8 11 1008.4 - 0.0
19/02:50pm 29.5 26.5 7.5 25 12.4 N 13 20 7 11 1008.6 - 0.0
19/02:40pm 28.1 24.2 8.5 29 11.1 NNE 19 26 10 14 1008.8 - 0.0
19/02:30pm 28.6 25.2 9.1 29 11.2 N 17 22 9 12 1009.1 - 0.0
19/02:20pm 28.8 25.4 9.2 29 11.3 N 17 24 9 13 1009.2 - 0.0
19/02:10pm 27.5 24.8 10.4 34 10.0 NNE 15 22 8 12 1009.3 - 0.0
19/02:00pm 27.7 25.3 10.1 33 10.2 NNE 13 20 7 11 1009.5 - 0.0
19/01:50pm 26.9 24.8 11.3 37 9.2 NNE 13 19 7 10 1009.7 - 0.0
19/01:40pm 27.5 24.2 11.0 35 9.7 N 19 24 10 13 1009.9 - 0.0
19/01:30pm 27.2 24.7 12.3 39 9.0 N 17 22 9 12 1010.0 - 0.0
19/01:20pm 26.7 24.7 12.7 42 8.5 N 15 22 8 12 1010.3 - 0.0
19/01:10pm 26.5 23.9 11.9 40 8.7 N 17 20 9 11 1010.4 - 0.0
19/01:00pm 25.5 23.4 12.4 44 7.8 N 15 20 8 11 1010.6 - 0.0
19/12:50pm 25.5 22.9 11.9 42 8.1 N 17 26 9 14 1010.8 - 0.0
19/12:40pm 25.0 22.5 12.4 45 7.5 N 17 20 9 11 1010.9 - 0.0
19/12:30pm 25.8 23.5 13.0 45 7.7 N 17 20 9 11 1011.1 - 0.0
19/12:20pm 27.0 25.1 12.9 41 8.6 N 15 17 8 9 1011.1 - 0.0
19/12:10pm 26.6 24.5 12.5 41 8.5 N 15 19 8 10 1011.2 - 0.0
19/12:00pm 26.6 25.4 12.9 42 8.3 N 11 15 6 8 1011.4 - 0.0
19/11:50am 26.2 24.0 12.2 41 8.4 NNW 15 17 8 9 1011.5 - 0.0
19/11:40am 25.3 24.2 13.2 47 7.3 NNE 11 15 6 8 1011.5 - 0.0
19/11:30am 25.2 24.3 12.5 45 7.6 N 9 20 5 11 1011.6 - 0.0
19/11:20am 23.5 22.1 12.2 49 6.7 N 11 15 6 8 1011.8 - 0.0
19/11:10am 22.7 21.1 12.8 53 5.9 NNE 13 17 7 9 1012.0 - 0.0
19/11:00am 22.9 21.7 12.8 53 6.0 NNE 11 17 6 9 1012.0 - 0.0
19/10:50am 22.8 21.6 12.9 53 5.9 NNE 11 17 6 9 1012.1 - 0.0
19/10:40am 23.4 22.1 12.4 50 6.5 N 11 15 6 8 1012.1 - 0.0
19/10:30am 22.4 21.1 12.5 53 5.9 N 11 15 6 8 1012.1 - 0.0
19/10:20am 22.8 20.7 12.5 52 6.1 N 15 17 8 9 1012.3 - 0.0
19/10:10am 22.5 21.1 12.2 52 6.1 N 11 13 6 7 1012.2 - 0.0
19/10:00am 21.4 20.7 12.1 55 5.4 NNW 7 9 4 5 1012.1 - 0.0
19/09:50am 20.9 20.2 12.1 57 5.1 NNE 7 9 4 5 1012.3 - 0.0
19/09:40am 20.7 20.6 12.0 57 5.1 NNW 4 7 2 4 1012.4 - 0.0
19/09:30am 19.8 18.8 12.2 61 4.4 N 9 11 5 6 1012.5 - 0.0
19/09:20am 19.2 18.6 12.2 64 4.1 NNE 7 11 4 6 1012.7 - 0.0
19/09:10am 19.7 18.2 11.8 60 4.6 N 11 13 6 7 1012.9 - 0.0
19/09:00am 18.8 17.7 11.8 64 4.0 N 9 11 5 6 1012.8 - 0.0
19/08:50am 17.9 16.7 11.5 66 3.6 NNE 9 11 5 6 1012.9 - 0.0
19/08:40am 17.9 16.4 11.8 67 3.5 NNE 11 13 6 7 1012.8 - 0.0
19/08:30am 17.9 16.7 11.7 67 3.5 NNE 9 13 5 7 1013.0 - 0.0
19/08:20am 17.4 16.7 11.5 68 3.4 NNE 6 7 3 4 1012.8 - 0.0
19/08:10am 16.6 16.6 11.2 70 3.0 NNE 2 6 1 3 1012.7 - 0.0
19/08:00am 16.0 16.0 11.2 73 2.7 NNW 2 6 1 3 1012.7 - 0.0
19/07:50am 15.4 15.0 11.1 75 2.4 NNE 4 7 2 4 1012.7 - 0.0
19/07:40am 15.2 14.4 11.1 76 2.3 NE 6 9 3 5 1012.7 - 0.0
19/07:30am 15.2 15.6 11.2 77 2.2 CALM 0 4 0 2 1012.6 - 0.0
19/07:20am 15.0 14.7 11.3 78 2.1 ENE 4 6 2 3 1012.6 - 0.0
19/07:10am 14.5 14.5 11.0 79 1.9 E 2 6 1 3 1012.6 - 0.0
19/07:00am 14.4 14.7 10.9 79 1.9 CALM 0 0 0 0 1012.5 - 0.0
19/06:50am 14.3 14.6 11.0 80 1.8 CALM 0 0 0 0 1012.2 - 0.0
19/06:40am 14.3 14.6 10.9 80 1.9 CALM 0 2 0 1 1012.2 - 0.0
19/06:30am 14.6 14.5 10.9 78 2.0 N 2 4 1 2 1012.1 - 0.0
19/06:20am 15.2 15.2 11.0 76 2.3 ENE 2 6 1 3 1012.0 - 0.0
19/06:10am 15.2 14.4 10.9 75 2.4 SSE 6 6 3 3 1011.9 - 0.0
19/06:00am 15.2 15.5 10.9 75 2.4 CALM 0 4 0 2 1011.9 - 0.0
19/05:50am 15.2 15.1 10.9 75 2.4 SSW 2 6 1 3 1011.9 - 0.0
19/05:40am 15.2 14.7 10.8 75 2.4 S 4 4 2 2 1011.8 - 0.0
19/05:30am 15.0 14.1 10.8 76 2.3 SSE 6 7 3 4 1011.8 - 0.0
19/05:20am 15.0 14.1 10.7 75 2.4 S 6 7 3 4 1011.8 - 0.0
19/05:10am 14.9 13.8 10.7 76 2.3 S 7 9 4 5 1011.8 - 0.0
19/05:00am 14.8 13.7 10.7 76 2.3 S 7 7 4 4 1011.9 - 0.0
19/04:50am 14.7 13.8 10.7 77 2.2 S 6 7 3 4 1011.7 - 0.0
19/04:40am 14.5 13.6 10.7 78 2.1 S 6 6 3 3 1011.9 - 0.0
19/04:30am 14.3 13.4 10.7 79 2.0 S 6 7 3 4 1011.8 - 0.0
19/04:20am 14.3 13.2 10.7 79 2.0 S 7 7 4 4 1011.9 - 0.0
19/04:10am 14.2 13.7 10.8 80 1.9 SSW 4 6 2 3 1012.1 - 0.0
19/04:00am 14.4 13.9 10.8 79 2.0 SW 4 4 2 2 1012.2 - 0.0
19/03:50am 14.5 14.0 10.8 78 2.0 S 4 6 2 3 1012.2 - 0.0
19/03:40am 14.8 13.9 10.7 76 2.3 NE 6 7 3 4 1012.2 - 0.0
19/03:30am 14.6 14.8 10.7 77 2.2 CALM 0 4 0 2 1012.2 - 0.0
19/03:20am 14.8 15.1 10.8 77 2.2 CALM 0 0 0 0 1012.2 - 0.0
19/03:10am 15.4 15.7 10.8 74 2.6 CALM 0 2 0 1 1012.1 - 0.0
19/03:00am 15.8 15.7 10.7 71 2.8 NE 2 4 1 2 1012.1 - 0.0
19/02:50am 15.6 15.0 10.5 71 2.8 ESE 4 6 2 3 1012.1 - 0.0
19/02:40am 15.5 14.6 10.7 73 2.7 SE 6 6 3 3 1012.2 - 0.0
19/02:30am 15.4 14.5 10.7 73 2.6 SSE 6 7 3 4 1012.1 - 0.0
19/02:20am 15.6 14.5 10.7 72 2.7 S 7 9 4 5 1012.2 - 0.0
19/02:10am 15.6 14.1 10.7 72 2.7 S 9 9 5 5 1012.3 - 0.0
19/02:00am 15.4 14.5 10.8 74 2.6 S 6 7 3 4 1012.3 - 0.0
19/01:50am 15.3 14.2 10.8 74 2.5 S 7 9 4 5 1012.4 - 0.0
19/01:40am 15.3 14.3 10.9 75 2.4 S 7 9 4 5 1012.5 - 0.0
19/01:30am 15.3 13.9 10.9 75 2.4 S 9 9 5 5 1012.7 - 0.0
19/01:20am 15.3 14.3 11.0 75 2.4 S 7 11 4 6 1012.8 - 0.0
19/01:10am 15.3 14.9 11.1 76 2.3 S 4 6 2 3 1012.9 - 0.0
19/01:00am 15.3 14.5 11.1 76 2.3 S 6 7 3 4 1012.9 - 0.0
19/12:50am 15.3 14.5 11.1 76 2.3 S 6 7 3 4 1013.1 - 0.0
19/12:40am 15.2 14.4 11.2 77 2.2 S 6 6 3 3 1013.2 - 0.0
19/12:30am 15.0 14.2 11.1 77 2.2 S 6 6 3 3 1013.3 - 0.0
19/12:20am 14.9 14.5 11.2 78 2.1 SSE 4 6 2 3 1013.4 - 0.0
19/12:10am 15.0 15.0 11.2 78 2.1 S 2 4 1 2 1013.7 - 0.0
19/12:00am 15.0 14.6 11.2 78 2.1 S 4 6 2 3 1013.8 - 0.0
 
Date/Time
EDT
Temp
°C
App
Temp
°C
Dew
Point
°C
Rel
Hum
%
Delta-T
°C
Wind Press
QNH
hPa
Press
MSL
hPa
Rain since
9am
mm
Dir  Spd
km/h
Gust
km/h
Spd
kts
Gust
kts
18/11:50pm 15.1 15.1 11.2 77 2.2 SSW 2 4 1 2 1013.9 - 0.0
18/11:40pm 15.3 15.7 11.3 77 2.2 CALM 0 4 0 2 1014.1 - 0.0
18/11:30pm 15.5 15.9 11.3 76 2.4 CALM 0 4 0 2 1014.2 - 0.0
18/11:20pm 15.6 15.6 11.2 75 2.5 ESE 2 4 1 2 1014.3 - 0.0
18/11:10pm 15.7 15.4 11.3 75 2.5 ESE 4 6 2 3 1014.5 - 0.0
18/11:00pm 15.8 15.5 11.3 74 2.5 ESE 4 9 2 5 1014.7 - 0.0
18/10:50pm 15.9 15.2 11.3 74 2.6 ESE 6 11 3 6 1014.8 - 0.0
18/10:40pm 16.0 15.7 11.4 74 2.6 E 4 7 2 4 1014.8 - 0.0
18/10:30pm 16.2 14.9 11.4 73 2.7 NE 9 11 5 6 1014.7 - 0.0
18/10:20pm 16.4 14.8 11.4 72 2.8 NE 11 13 6 7 1014.8 - 0.0
18/10:10pm 16.4 14.8 11.4 72 2.8 NE 11 13 6 7 1014.8 - 0.0
18/10:00pm 16.2 15.5 11.5 73 2.7 NNE 6 9 3 5 1014.6 - 0.0
18/09:50pm 16.3 16.0 11.5 73 2.7 N 4 6 2 3 1014.6 - 0.0
18/09:40pm 16.2 15.9 11.6 74 2.6 N 4 6 2 3 1014.6 - 0.0
18/09:30pm 16.2 15.6 11.6 74 2.6 NE 6 9 3 5 1014.4 - 0.0
18/09:20pm 16.3 15.1 11.6 74 2.7 NNE 9 13 5 7 1014.2 - 0.0
18/09:10pm 16.4 14.8 11.7 74 2.7 NE 11 13 6 7 1014.1 - 0.0
18/09:00pm 16.5 14.2 11.8 74 2.7 NE 15 19 8 10 1014.1 - 0.0
18/08:50pm 16.7 14.4 11.8 73 2.8 NE 15 17 8 9 1013.7 - 0.0
18/08:40pm 16.8 13.8 11.9 73 2.8 NE 19 20 10 11 1013.6 - 0.0
18/08:30pm 17.0 14.4 11.9 72 2.9 NE 17 20 9 11 1013.5 - 0.0
18/08:20pm 17.2 14.2 11.9 71 3.0 NE 19 20 10 11 1013.5 - 0.0
18/08:10pm 17.6 15.3 11.9 69 3.3 NE 15 17 8 9 1013.2 - 0.0
18/08:00pm 18.0 15.3 11.8 67 3.6 NNE 17 20 9 11 1013.1 - 0.0
18/07:50pm 18.3 16.0 11.7 65 3.8 NNE 15 20 8 11 1013.0 - 0.0
18/07:40pm 18.6 16.3 11.7 64 4.0 NNE 15 19 8 10 1012.7 - 0.0
18/07:30pm 19.0 16.7 11.6 62 4.2 NNE 15 19 8 10 1012.6 - 0.0
18/07:20pm 19.4 16.1 11.6 60 4.5 NNE 20 24 11 13 1012.6 - 0.0
18/07:10pm 19.9 17.6 11.9 60 4.6 NNE 15 20 8 11 1012.5 - 0.0
18/07:00pm 20.2 18.3 11.9 59 4.8 N 13 19 7 10 1012.5 - 0.0
18/06:50pm 20.3 18.0 11.9 58 4.9 N 15 20 8 11 1012.5 - 0.0
18/06:40pm 20.0 17.4 11.9 59 4.7 NNE 17 19 9 10 1012.4 - 0.0
18/06:30pm 20.1 17.1 11.9 59 4.8 NNE 19 22 10 12 1012.1 - 0.0
18/06:20pm 20.3 17.7 11.9 58 4.9 NNE 17 20 9 11 1012.2 - 0.0
18/06:10pm 20.4 17.2 11.9 58 4.9 NNE 20 24 11 13 1012.1 - 0.0
18/06:00pm 21.0 17.4 12.0 56 5.2 NNE 22 26 12 14 1012.0 - 0.0
18/05:50pm 22.5 19.4 12.1 51 6.1 N 20 26 11 14 1012.0 - 0.0
18/05:40pm 21.9 18.7 11.8 52 5.9 NNE 20 26 11 14 1011.8 - 0.0
18/05:30pm 22.7 19.4 11.7 49 6.4 N 20 26 11 14 1011.9 - 0.0
18/05:20pm 21.8 18.6 11.8 53 5.8 NNE 20 30 11 16 1011.9 - 0.0
18/05:10pm 21.8 17.3 11.5 52 6.0 NNE 26 32 14 17 1011.9 - 0.0
18/05:00pm 22.3 18.0 12.0 52 6.0 NNE 26 33 14 18 1011.8 - 0.0
18/04:50pm 22.8 18.8 11.8 50 6.4 NNE 24 26 13 14 1012.0 - 0.0
18/04:40pm 22.8 18.8 11.8 50 6.4 NNE 24 28 13 15 1011.8 - 0.0
18/04:30pm 23.0 19.0 11.7 49 6.6 NNE 24 32 13 17 1011.9 - 0.0
18/04:20pm 22.7 17.9 11.7 49 6.4 NNE 28 35 15 19 1011.9 - 0.0
18/04:10pm 23.0 17.9 11.9 49 6.5 NNE 30 35 16 19 1011.7 - 0.0
18/04:00pm 23.1 17.9 11.6 48 6.7 NNE 30 33 16 18 1011.7 - 0.0
18/03:50pm 24.3 20.7 11.8 45 7.4 NNE 22 30 12 16 1011.8 - 0.0
18/03:40pm 26.2 24.8 10.8 38 9.0 E 9 17 5 9 1011.7 - 0.0
18/03:30pm 26.1 23.5 10.8 38 8.9 NE 15 26 8 14 1011.9 - 0.0
18/03:20pm 25.9 23.7 10.7 38 8.9 ENE 13 20 7 11 1012.0 - 0.0
18/03:10pm 25.5 22.8 10.5 39 8.7 NE 15 24 8 13 1012.1 - 0.0
18/03:00pm 25.6 23.1 10.9 39 8.6 NNE 15 22 8 12 1012.2 - 0.0
18/02:50pm 25.5 22.9 10.6 39 8.7 NNE 15 22 8 12 1012.3 - 0.0
18/02:40pm 25.2 21.6 10.7 40 8.4 NNE 20 26 11 14 1012.3 - 0.0
18/02:30pm 25.8 23.6 10.7 38 8.8 NE 13 24 7 13 1012.5 - 0.0
18/02:20pm 24.2 19.5 10.6 42 7.9 NNE 26 32 14 17 1012.6 - 0.0
18/02:10pm 24.1 20.7 11.2 44 7.5 NE 20 30 11 16 1012.6 - 0.0
18/02:00pm 24.0 20.7 10.8 43 7.6 NE 19 24 10 13 1012.8 - 0.0
18/01:50pm 23.7 19.4 10.8 44 7.5 NE 24 30 13 16 1012.8 - 0.0
18/01:40pm 24.4 20.9 10.9 42 7.8 NNE 20 28 11 15 1013.0 - 0.0
18/01:30pm 24.1 19.9 11.1 44 7.6 NNE 24 30 13 16 1013.1 - 0.0
18/01:20pm 24.3 21.4 11.1 43 7.7 NE 17 22 9 12 1013.2 - 0.0
18/01:10pm 23.2 18.6 11.1 46 7.0 NNE 26 30 14 16 1013.5 - 0.0
18/01:00pm 22.9 18.7 11.0 47 6.9 NNE 24 28 13 15 1013.7 - 0.0
18/12:50pm 23.0 20.2 11.3 47 6.8 NE 17 28 9 15 1013.8 - 0.0
18/12:40pm 23.8 20.6 11.8 47 7.1 NNE 20 28 11 15 1014.0 - 0.0
18/12:30pm 22.9 19.4 11.0 47 6.9 NNE 20 26 11 14 1014.0 - 0.0
18/12:20pm 22.2 18.1 11.3 50 6.3 NNE 24 28 13 15 1014.3 - 0.0
18/12:10pm 22.7 19.3 11.3 48 6.6 NNE 20 26 11 14 1014.3 - 0.0
18/12:00pm 22.1 18.7 11.4 50 6.2 NNE 20 24 11 13 1014.4 - 0.0
18/11:50am 22.1 19.3 11.3 50 6.3 NNE 17 24 9 13 1014.6 - 0.0
18/11:40am 21.7 18.9 11.5 52 5.9 NE 17 22 9 12 1014.6 - 0.0
18/11:30am 21.8 19.8 11.4 51 6.0 NE 13 19 7 10 1014.7 - 0.0
18/11:20am 20.8 18.0 11.3 54 5.5 NE 17 20 9 11 1014.9 - 0.0
18/11:10am 20.7 18.0 11.7 56 5.2 ENE 17 24 9 13 1014.9 - 0.0
18/11:00am 21.2 18.5 11.8 55 5.5 NE 17 22 9 12 1015.0 - 0.0
18/10:50am 20.9 18.3 10.7 52 5.8 NE 15 24 8 13 1015.1 - 0.0
18/10:40am 20.0 16.8 11.2 57 5.0 NE 19 22 10 12 1015.3 - 0.0
18/10:30am 20.1 17.3 11.3 57 5.0 NNE 17 22 9 12 1015.4 - 0.0
18/10:20am 20.3 17.5 11.3 56 5.2 NNE 17 20 9 11 1015.7 - 0.0
18/10:10am 20.1 18.4 11.3 57 5.0 NE 11 17 6 9 1015.7 - 0.0
18/10:00am 19.8 18.6 11.5 58 4.8 ENE 9 15 5 8 1015.8 - 0.0
18/09:50am 19.7 18.7 10.9 57 5.0 ENE 7 13 4 7 1015.8 - 0.0
18/09:40am 18.3 17.0 11.1 63 4.1 NE 9 13 5 7 1015.8 - 0.0
18/09:30am 17.8 17.0 11.2 65 3.7 ENE 6 11 3 6 1015.9 - 0.0
18/09:20am 18.3 17.6 11.3 63 4.0 - 6 7 3 4 1016.0 - 0.0
18/09:10am 18.2 17.8 11.1 63 4.0 E 4 6 2 3 1016.0 - 0.0
18/09:00am 17.5 17.2 11.3 67 3.5 E 4 7 2 4 1015.9 - 0.0
18/08:50am 17.3 16.5 11.0 66 3.5 ENE 6 13 3 7 1015.8 - 0.0
18/08:40am 17.0 16.2 11.2 68 3.3 SE 6 7 3 4 1015.7 - 0.0
18/08:30am 16.9 16.9 11.2 69 3.2 NE 2 6 1 3 1015.8 - 0.0
18/08:20am 16.5 14.7 10.9 69 3.1 ESE 11 13 6 7 1015.7 - 0.0
18/08:10am 16.4 15.0 10.9 70 3.1 ESE 9 11 5 6 1015.5 - 0.0
18/08:00am 16.4 16.0 11.0 70 3.0 E 4 7 2 4 1015.5 - 0.0
18/07:50am 16.3 15.9 11.0 71 3.0 NE 4 7 2 4 1015.5 - 0.0
18/07:40am 16.1 15.1 11.0 72 2.9 E 7 15 4 8 1015.4 - 0.0
18/07:30am 16.1 15.3 11.1 72 2.8 ESE 6 9 3 5 1015.3 - 0.0
18/07:20am 16.2 16.2 11.1 72 2.9 ENE 2 6 1 3 1015.2 - 0.0
18/07:10am 16.1 15.7 11.1 72 2.8 ENE 4 6 2 3 1015.0 - 0.0
18/07:00am 16.0 15.6 11.1 72 2.7 SW 4 6 2 3 1015.0 - 0.0
18/06:50am 15.9 15.1 11.0 72 2.7 S 6 9 3 5 1014.9 - 0.0
18/06:40am 16.0 15.6 11.1 72 2.7 SE 4 11 2 6 1014.8 - 0.0
18/06:30am 16.0 15.6 11.1 72 2.7 SSE 4 6 2 3 1014.7 - 0.0
18/06:20am 15.9 15.5 11.1 73 2.7 SSW 4 7 2 4 1014.7 - 0.0
18/06:10am 15.9 15.6 11.3 74 2.6 E 4 9 2 5 1014.6 - 0.0
18/06:00am 15.9 15.6 11.3 74 2.6 SE 4 9 2 5 1014.5 - 0.0
18/05:50am 15.9 15.2 11.3 74 2.6 SSE 6 9 3 5 1014.6 - 0.0
18/05:40am 16.0 15.3 11.3 73 2.6 ESE 6 9 3 5 1014.5 - 0.0
18/05:30am 16.0 15.3 11.3 73 2.6 E 6 9 3 5 1014.5 - 0.0
18/05:20am 16.0 15.7 11.3 73 2.6 S 4 9 2 5 1014.5 - 0.0
18/05:10am 16.0 15.3 11.4 74 2.6 SSW 6 7 3 4 1014.5 - 0.0
18/05:00am 16.0 15.7 11.4 74 2.6 SSW 4 6 2 3 1014.5 - 0.0
18/04:50am 16.0 15.7 11.4 74 2.6 SSE 4 6 2 3 1014.6 - 0.0
18/04:40am 16.0 15.3 11.4 74 2.6 ESE 6 9 3 5 1014.7 - 0.0
18/04:30am 16.1 15.4 11.4 73 2.6 E 6 11 3 6 1014.6 - 0.0
18/04:20am 16.1 15.8 11.4 73 2.6 ENE 4 6 2 3 1014.6 - 0.0

Latest Capital City Observations: Canberra | Sydney | Melbourne | Brisbane | Adelaide | Perth | Hobart | Darwin

Other formats

Comma delimited format used in spreadsheet applications
http://www.bom.gov.au/fwo/IDN60903/IDN60903.99762.axf

JavaScript Object Notation format (JSON) in row-major order
http://www.bom.gov.au/fwo/IDN60903/IDN60903.99762.json

Data quality

Most of these data are generated automatically and are frequently updated. Quality checks on data are not normally performed. It is possible for incorrect values to appear. Refer to information at About Latest Weather Observations and please check the disclaimer before using these data.